KJFK

John F Kennedy International Airport

New York, New York, USA
METAR KJFK 190851Z 25008KT 10SM CLR 07/01 A3032 RMK AO2 SLP268 T00670006 58007 VISNO W $
Observed Flight Rules
Oct-19 @ 08:51 UTC (13 minutes ago) Visual Flight Rules
Wind Visibility Clouds
250° at 8 knots 10 miles
  • Clear skies
Temperatures Readings
Current 7°C / 45°F
Dewpoint 1°C / 34°F
Humidity 66%
Altimeter 30.32" Hg
Pressure 1026.8 hPa
Elevation 9
METAR KJFK 190851Z 25008KT 10SM CLR 07/01 A3032 RMK AO2 SLP268 T00670006 58007 VISNO W $
Observed Flight Rules
Oct-19 @ 08:51 UTC
(13 minutes ago)
VFR
Wind Visibility
250° at 8 knots 10 miles
Clouds
  • Clear skies
Temperature Dewpoint
7°C / 45°F 1°C / 34°F
Humidity Altimeter Pressure
66% 30.32" Hg 1026.8 hPa